sensor_id;sensor_type;location;lat;lon;timestamp;pressure;altitude;pressure_sealevel;temperature;humidity
49611;BME280;35515;48.766;9.176;2023-05-10T00:01:30;97707.03;;;15.05;100.00
49611;BME280;35515;48.766;9.176;2023-05-10T00:03:56;97717.09;;;15.04;100.00
49611;BME280;35515;48.766;9.176;2023-05-10T00:06:23;97722.25;;;15.01;100.00
49611;BME280;35515;48.766;9.176;2023-05-10T00:08:49;97728.66;;;14.90;100.00
49611;BME280;35515;48.766;9.176;2023-05-10T00:11:16;97722.84;;;14.86;100.00
49611;BME280;35515;48.766;9.176;2023-05-10T00:13:42;97723.19;;;14.90;100.00
49611;BME280;35515;48.766;9.176;2023-05-10T00:16:10;97736.19;;;14.82;100.00
49611;BME280;35515;48.766;9.176;2023-05-10T00:18:38;97728.28;;;15.03;100.00
49611;BME280;35515;48.766;9.176;2023-05-10T00:21:05;97723.78;;;14.92;100.00
49611;BME280;35515;48.766;9.176;2023-05-10T00:23:31;97719.56;;;14.84;100.00
49611;BME280;35515;48.766;9.176;2023-05-10T00:25:58;97711.59;;;14.77;100.00
49611;BME280;35515;48.766;9.176;2023-05-10T00:28:24;97720.31;;;14.79;100.00
49611;BME280;35515;48.766;9.176;2023-05-10T00:30:51;97720.03;;;14.76;100.00
49611;BME280;35515;48.766;9.176;2023-05-10T00:33:19;97720.28;;;14.96;100.00
49611;BME280;35515;48.766;9.176;2023-05-10T00:35:45;97719.50;;;14.79;100.00
49611;BME280;35515;48.766;9.176;2023-05-10T00:38:12;97723.81;;;14.75;100.00
49611;BME280;35515;48.766;9.176;2023-05-10T00:40:39;97724.31;;;14.71;100.00
49611;BME280;35515;48.766;9.176;2023-05-10T00:43:06;97726.53;;;14.75;100.00
49611;BME280;35515;48.766;9.176;2023-05-10T00:45:33;97729.44;;;14.68;100.00
49611;BME280;35515;48.766;9.176;2023-05-10T00:48:01;97728.84;;;14.66;100.00
49611;BME280;35515;48.766;9.176;2023-05-10T00:50:30;97730.09;;;14.58;100.00
49611;BME280;35515;48.766;9.176;2023-05-10T00:52:59;97733.56;;;14.53;100.00
49611;BME280;35515;48.766;9.176;2023-05-10T00:55:26;97739.19;;;14.47;100.00
49611;BME280;35515;48.766;9.176;2023-05-10T00:57:53;97739.53;;;14.50;100.00
49611;BME280;35515;48.766;9.176;2023-05-10T01:00:20;97742.25;;;14.50;100.00
49611;BME280;35515;48.766;9.176;2023-05-10T01:02:46;97750.91;;;14.47;100.00
49611;BME280;35515;48.766;9.176;2023-05-10T01:05:14;97749.00;;;14.48;100.00
49611;BME280;35515;48.766;9.176;2023-05-10T01:07:42;97751.41;;;14.44;100.00
49611;BME280;35515;48.766;9.176;2023-05-10T01:13:33;97755.38;;;14.36;100.00
49611;BME280;35515;48.766;9.176;2023-05-10T01:15:59;97750.06;;;14.30;100.00
49611;BME280;35515;48.766;9.176;2023-05-10T01:18:28;97752.06;;;14.34;100.00
49611;BME280;35515;48.766;9.176;2023-05-10T01:21:01;97751.66;;;14.43;100.00
49611;BME280;35515;48.766;9.176;2023-05-10T01:23:45;97749.81;;;14.31;100.00
49611;BME280;35515;48.766;9.176;2023-05-10T01:26:34;97754.47;;;14.31;100.00
49611;BME280;35515;48.766;9.176;2023-05-10T01:29:17;97761.31;;;14.33;100.00
49611;BME280;35515;48.766;9.176;2023-05-10T01:34:55;97769.06;;;14.25;100.00
49611;BME280;35515;48.766;9.176;2023-05-10T01:37:33;97768.16;;;14.36;100.00
49611;BME280;35515;48.766;9.176;2023-05-10T01:40:08;97770.22;;;14.29;100.00
49611;BME280;35515;48.766;9.176;2023-05-10T01:42:40;97771.72;;;14.36;100.00
49611;BME280;35515;48.766;9.176;2023-05-10T01:45:14;97772.28;;;14.21;100.00
49611;BME280;35515;48.766;9.176;2023-05-10T01:47:48;97773.19;;;14.27;100.00
49611;BME280;35515;48.766;9.176;2023-05-10T01:50:21;97777.19;;;14.19;100.00
49611;BME280;35515;48.766;9.176;2023-05-10T01:52:52;97771.47;;;14.21;100.00
49611;BME280;35515;48.766;9.176;2023-05-10T01:55:20;97781.78;;;14.19;100.00
49611;BME280;35515;48.766;9.176;2023-05-10T01:57:50;97775.19;;;14.32;100.00
49611;BME280;35515;48.766;9.176;2023-05-10T02:00:20;97783.28;;;14.27;100.00
49611;BME280;35515;48.766;9.176;2023-05-10T02:02:48;97788.72;;;14.27;100.00
49611;BME280;35515;48.766;9.176;2023-05-10T02:05:18;97792.50;;;14.26;100.00
49611;BME280;35515;48.766;9.176;2023-05-10T02:07:45;97790.38;;;14.28;100.00
49611;BME280;35515;48.766;9.176;2023-05-10T02:10:14;97786.72;;;14.22;100.00
49611;BME280;35515;48.766;9.176;2023-05-10T02:12:43;97787.91;;;14.26;100.00
49611;BME280;35515;48.766;9.176;2023-05-10T02:15:12;97783.59;;;14.13;100.00
49611;BME280;35515;48.766;9.176;2023-05-10T02:17:42;97786.41;;;14.18;100.00
49611;BME280;35515;48.766;9.176;2023-05-10T02:20:10;97784.41;;;14.14;100.00
49611;BME280;35515;48.766;9.176;2023-05-10T02:22:40;97790.69;;;14.14;100.00
49611;BME280;35515;48.766;9.176;2023-05-10T02:25:08;97791.31;;;14.04;100.00
49611;BME280;35515;48.766;9.176;2023-05-10T02:27:37;97790.25;;;14.05;100.00
49611;BME280;35515;48.766;9.176;2023-05-10T02:30:05;97805.28;;;14.08;100.00
49611;BME280;35515;48.766;9.176;2023-05-10T02:32:33;97805.78;;;14.05;100.00
49611;BME280;35515;48.766;9.176;2023-05-10T02:35:01;97813.22;;;14.10;100.00
49611;BME280;35515;48.766;9.176;2023-05-10T02:37:29;97814.63;;;14.12;100.00
49611;BME280;35515;48.766;9.176;2023-05-10T02:39:59;97815.28;;;14.02;100.00
49611;BME280;35515;48.766;9.176;2023-05-10T02:42:29;97821.78;;;14.01;100.00
49611;BME280;35515;48.766;9.176;2023-05-10T02:45:00;97820.97;;;14.01;100.00
49611;BME280;35515;48.766;9.176;2023-05-10T02:47:28;97811.94;;;14.00;100.00
49611;BME280;35515;48.766;9.176;2023-05-10T02:49:55;97816.69;;;14.05;100.00
49611;BME280;35515;48.766;9.176;2023-05-10T02:52:23;97819.88;;;14.02;100.00
49611;BME280;35515;48.766;9.176;2023-05-10T02:54:54;97814.94;;;13.99;100.00
49611;BME280;35515;48.766;9.176;2023-05-10T02:57:31;97823.69;;;14.01;100.00
49611;BME280;35515;48.766;9.176;2023-05-10T02:59:58;97820.78;;;13.91;100.00
49611;BME280;35515;48.766;9.176;2023-05-10T03:02:25;97820.72;;;14.02;100.00
49611;BME280;35515;48.766;9.176;2023-05-10T03:04:52;97816.25;;;13.96;100.00
49611;BME280;35515;48.766;9.176;2023-05-10T03:07:18;97812.19;;;13.99;100.00
49611;BME280;35515;48.766;9.176;2023-05-10T03:09:46;97820.78;;;13.91;100.00
49611;BME280;35515;48.766;9.176;2023-05-10T03:15:04;97825.66;;;14.05;100.00
49611;BME280;35515;48.766;9.176;2023-05-10T03:17:51;97834.50;;;14.13;100.00
49611;BME280;35515;48.766;9.176;2023-05-10T03:20:22;97824.91;;;13.93;100.00
49611;BME280;35515;48.766;9.176;2023-05-10T03:22:55;97831.25;;;13.99;100.00
49611;BME280;35515;48.766;9.176;2023-05-10T03:25:22;97825.25;;;13.97;100.00
49611;BME280;35515;48.766;9.176;2023-05-10T03:27:49;97826.97;;;14.03;100.00
49611;BME280;35515;48.766;9.176;2023-05-10T03:30:18;97829.28;;;13.94;100.00
49611;BME280;35515;48.766;9.176;2023-05-10T03:32:45;97821.72;;;13.84;100.00
49611;BME280;35515;48.766;9.176;2023-05-10T03:35:12;97833.69;;;13.83;100.00
49611;BME280;35515;48.766;9.176;2023-05-10T03:37:39;97823.38;;;13.85;100.00
49611;BME280;35515;48.766;9.176;2023-05-10T03:40:07;97826.47;;;13.89;100.00
49611;BME280;35515;48.766;9.176;2023-05-10T03:42:33;97827.66;;;13.81;100.00
49611;BME280;35515;48.766;9.176;2023-05-10T03:45:00;97835.84;;;13.81;100.00
49611;BME280;35515;48.766;9.176;2023-05-10T03:47:28;97840.31;;;13.87;100.00
49611;BME280;35515;48.766;9.176;2023-05-10T03:49:54;97836.75;;;13.87;100.00
49611;BME280;35515;48.766;9.176;2023-05-10T03:52:21;97837.41;;;13.77;100.00
49611;BME280;35515;48.766;9.176;2023-05-10T03:54:47;97842.34;;;13.80;100.00
49611;BME280;35515;48.766;9.176;2023-05-10T03:57:14;97839.13;;;13.83;100.00
49611;BME280;35515;48.766;9.176;2023-05-10T03:59:40;97845.63;;;13.94;100.00
49611;BME280;35515;48.766;9.176;2023-05-10T04:02:07;97839.63;;;13.80;100.00
49611;BME280;35515;48.766;9.176;2023-05-10T04:04:35;97836.53;;;13.77;100.00
49611;BME280;35515;48.766;9.176;2023-05-10T04:07:01;97837.25;;;13.84;100.00
49611;BME280;35515;48.766;9.176;2023-05-10T04:09:28;97838.31;;;13.83;100.00
49611;BME280;35515;48.766;9.176;2023-05-10T04:11:55;97837.97;;;13.79;100.00
49611;BME280;35515;48.766;9.176;2023-05-10T04:14:21;97834.91;;;13.76;100.00
49611;BME280;35515;48.766;9.176;2023-05-10T04:16:48;97844.00;;;13.81;100.00
49611;BME280;35515;48.766;9.176;2023-05-10T04:19:14;97843.88;;;13.88;100.00
49611;BME280;35515;48.766;9.176;2023-05-10T04:21:42;97843.25;;;13.86;100.00
49611;BME280;35515;48.766;9.176;2023-05-10T04:24:09;97843.63;;;13.90;100.00
49611;BME280;35515;48.766;9.176;2023-05-10T04:26:35;97845.13;;;13.97;100.00
49611;BME280;35515;48.766;9.176;2023-05-10T04:29:02;97846.09;;;13.91;100.00
49611;BME280;35515;48.766;9.176;2023-05-10T04:31:28;97850.13;;;13.88;100.00
49611;BME280;35515;48.766;9.176;2023-05-10T04:33:55;97842.09;;;13.82;100.00
49611;BME280;35515;48.766;9.176;2023-05-10T04:36:21;97843.63;;;13.90;100.00
49611;BME280;35515;48.766;9.176;2023-05-10T04:38:49;97850.03;;;13.83;100.00
49611;BME280;35515;48.766;9.176;2023-05-10T04:41:16;97851.94;;;13.83;100.00
49611;BME280;35515;48.766;9.176;2023-05-10T04:43:42;97850.66;;;13.74;100.00
49611;BME280;35515;48.766;9.176;2023-05-10T04:46:09;97854.44;;;13.73;100.00
49611;BME280;35515;48.766;9.176;2023-05-10T04:48:35;97858.69;;;13.80;100.00
49611;BME280;35515;48.766;9.176;2023-05-10T04:51:02;97857.34;;;13.95;100.00
49611;BME280;35515;48.766;9.176;2023-05-10T04:53:30;97858.88;;;13.91;100.00
49611;BME280;35515;48.766;9.176;2023-05-10T04:55:58;97858.88;;;13.91;100.00
49611;BME280;35515;48.766;9.176;2023-05-10T04:58:25;97865.66;;;13.88;100.00
49611;BME280;35515;48.766;9.176;2023-05-10T05:00:51;97869.69;;;13.85;100.00
49611;BME280;35515;48.766;9.176;2023-05-10T05:03:18;97867.88;;;13.91;100.00
49611;BME280;35515;48.766;9.176;2023-05-10T05:05:44;97871.75;;;13.95;100.00
49611;BME280;35515;48.766;9.176;2023-05-10T05:08:11;97869.19;;;13.88;100.00
49611;BME280;35515;48.766;9.176;2023-05-10T05:10:37;97861.63;;;13.91;100.00
49611;BME280;35515;48.766;9.176;2023-05-10T05:13:05;97872.75;;;13.89;100.00
49611;BME280;35515;48.766;9.176;2023-05-10T05:15:32;97866.34;;;13.83;100.00
49611;BME280;35515;48.766;9.176;2023-05-10T05:17:59;97870.63;;;13.79;100.00
49611;BME280;35515;48.766;9.176;2023-05-10T05:20:25;97875.72;;;13.87;100.00
49611;BME280;35515;48.766;9.176;2023-05-10T05:22:52;97875.13;;;13.85;100.00
49611;BME280;35515;48.766;9.176;2023-05-10T05:25:18;97881.72;;;13.90;100.00
49611;BME280;35515;48.766;9.176;2023-05-10T05:27:45;97881.09;;;13.99;100.00
49611;BME280;35515;48.766;9.176;2023-05-10T05:30:13;97878.88;;;13.96;100.00
49611;BME280;35515;48.766;9.176;2023-05-10T05:32:39;97887.03;;;13.96;100.00
49611;BME280;35515;48.766;9.176;2023-05-10T05:35:06;97886.53;;;13.99;100.00
49611;BME280;35515;48.766;9.176;2023-05-10T05:37:33;97893.91;;;13.99;100.00
49611;BME280;35515;48.766;9.176;2023-05-10T05:40:00;97888.00;;;13.90;100.00
49611;BME280;35515;48.766;9.176;2023-05-10T05:42:27;97892.97;;;13.93;100.00
49611;BME280;35515;48.766;9.176;2023-05-10T05:44:53;97889.66;;;13.91;100.00
49611;BME280;35515;48.766;9.176;2023-05-10T05:47:21;97899.34;;;13.99;100.00
49611;BME280;35515;48.766;9.176;2023-05-10T05:49:48;97896.88;;;13.97;100.00
49611;BME280;35515;48.766;9.176;2023-05-10T05:52:14;97892.25;;;13.98;100.00
49611;BME280;35515;48.766;9.176;2023-05-10T05:54:41;97904.22;;;13.97;100.00
49611;BME280;35515;48.766;9.176;2023-05-10T05:57:07;97905.56;;;14.11;100.00
49611;BME280;35515;48.766;9.176;2023-05-10T05:59:34;97905.25;;;14.08;100.00
49611;BME280;35515;48.766;9.176;2023-05-10T06:02:00;97902.19;;;14.04;100.00
49611;BME280;35515;48.766;9.176;2023-05-10T06:04:28;97898.13;;;14.07;100.00
49611;BME280;35515;48.766;9.176;2023-05-10T06:06:55;97903.44;;;14.13;100.00
49611;BME280;35515;48.766;9.176;2023-05-10T06:09:21;97901.22;;;14.10;100.00
49611;BME280;35515;48.766;9.176;2023-05-10T06:11:49;97908.16;;;14.18;100.00
49611;BME280;35515;48.766;9.176;2023-05-10T06:14:16;97896.94;;;14.14;100.00
49611;BME280;35515;48.766;9.176;2023-05-10T06:16:42;97912.19;;;14.15;100.00
49611;BME280;35515;48.766;9.176;2023-05-10T06:19:09;97917.16;;;14.18;100.00
49611;BME280;35515;48.766;9.176;2023-05-10T06:21:37;97920.94;;;14.17;100.00
49611;BME280;35515;48.766;9.176;2023-05-10T06:24:04;97924.84;;;14.21;100.00
49611;BME280;35515;48.766;9.176;2023-05-10T06:26:31;97923.06;;;14.15;100.00
49611;BME280;35515;48.766;9.176;2023-05-10T06:28:58;97925.25;;;14.13;100.00
49611;BME280;35515;48.766;9.176;2023-05-10T06:31:25;97915.00;;;14.20;100.00
49611;BME280;35515;48.766;9.176;2023-05-10T06:33:51;97924.28;;;14.19;100.00
49611;BME280;35515;48.766;9.176;2023-05-10T06:36:18;97928.38;;;14.22;100.00
49611;BME280;35515;48.766;9.176;2023-05-10T06:38:46;97928.03;;;14.30;100.00
49611;BME280;35515;48.766;9.176;2023-05-10T06:41:13;97930.25;;;14.33;100.00
49611;BME280;35515;48.766;9.176;2023-05-10T06:43:40;97931.94;;;14.23;100.00
49611;BME280;35515;48.766;9.176;2023-05-10T06:46:08;97935.50;;;14.23;100.00
49611;BME280;35515;48.766;9.176;2023-05-10T06:48:35;97932.19;;;14.21;100.00
49611;BME280;35515;48.766;9.176;2023-05-10T06:51:01;97937.66;;;14.21;100.00
49611;BME280;35515;48.766;9.176;2023-05-10T06:53:28;97931.84;;;14.17;100.00
49611;BME280;35515;48.766;9.176;2023-05-10T06:55:56;97932.38;;;14.31;100.00
49611;BME280;35515;48.766;9.176;2023-05-10T06:58:22;97937.97;;;14.25;100.00
49611;BME280;35515;48.766;9.176;2023-05-10T07:00:49;97933.69;;;14.29;100.00
49611;BME280;35515;48.766;9.176;2023-05-10T07:03:15;97935.28;;;14.13;100.00
49611;BME280;35515;48.766;9.176;2023-05-10T07:05:42;97937.91;;;14.19;100.00
49611;BME280;35515;48.766;9.176;2023-05-10T07:08:09;97932.78;;;14.23;100.00
49611;BME280;35515;48.766;9.176;2023-05-10T07:10:35;97934.31;;;14.19;100.00
49611;BME280;35515;48.766;9.176;2023-05-10T07:13:03;97928.97;;;14.24;100.00
49611;BME280;35515;48.766;9.176;2023-05-10T07:15:30;97934.19;;;14.26;100.00
49611;BME280;35515;48.766;9.176;2023-05-10T07:17:56;97940.94;;;14.23;100.00
49611;BME280;35515;48.766;9.176;2023-05-10T07:20:23;97939.50;;;14.32;100.00
49611;BME280;35515;48.766;9.176;2023-05-10T07:22:50;97947.50;;;14.39;100.00
49611;BME280;35515;48.766;9.176;2023-05-10T07:25:16;97932.81;;;14.40;100.00
49611;BME280;35515;48.766;9.176;2023-05-10T07:27:43;97938.13;;;14.47;100.00
49611;BME280;35515;48.766;9.176;2023-05-10T07:30:12;97937.72;;;14.55;100.00
49611;BME280;35515;48.766;9.176;2023-05-10T07:32:39;97937.25;;;14.58;100.00
49611;BME280;35515;48.766;9.176;2023-05-10T07:35:07;97945.75;;;14.62;100.00
49611;BME280;35515;48.766;9.176;2023-05-10T07:37:34;97937.56;;;14.62;100.00
49611;BME280;35515;48.766;9.176;2023-05-10T07:40:01;97945.91;;;14.55;100.00
49611;BME280;35515;48.766;9.176;2023-05-10T07:42:27;97943.97;;;14.67;100.00
49611;BME280;35515;48.766;9.176;2023-05-10T07:44:54;97946.56;;;14.74;100.00
49611;BME280;35515;48.766;9.176;2023-05-10T07:47:22;97943.00;;;14.74;100.00
49611;BME280;35515;48.766;9.176;2023-05-10T07:49:48;97951.69;;;14.70;100.00
49611;BME280;35515;48.766;9.176;2023-05-10T07:52:15;97957.94;;;14.71;100.00
49611;BME280;35515;48.766;9.176;2023-05-10T07:54:41;97956.06;;;14.71;100.00
49611;BME280;35515;48.766;9.176;2023-05-10T07:57:08;97957.94;;;14.71;100.00
49611;BME280;35515;48.766;9.176;2023-05-10T07:59:34;97960.19;;;14.74;100.00
49611;BME280;35515;48.766;9.176;2023-05-10T08:02:01;97961.38;;;14.78;98.68
49611;BME280;35515;48.766;9.176;2023-05-10T08:04:29;97963.53;;;14.93;96.66
49611;BME280;35515;48.766;9.176;2023-05-10T08:06:55;97960.69;;;14.88;95.41
49611;BME280;35515;48.766;9.176;2023-05-10T08:09:22;97964.09;;;14.95;93.22
49611;BME280;35515;48.766;9.176;2023-05-10T08:11:49;97967.91;;;14.94;94.63
49611;BME280;35515;48.766;9.176;2023-05-10T08:14:15;97975.34;;;14.99;92.17
49611;BME280;35515;48.766;9.176;2023-05-10T08:16:42;97970.19;;;14.85;93.68
49611;BME280;35515;48.766;9.176;2023-05-10T08:19:08;97967.06;;;14.94;95.82
49611;BME280;35515;48.766;9.176;2023-05-10T08:21:36;97964.09;;;14.95;92.60
49611;BME280;35515;48.766;9.176;2023-05-10T08:24:03;97970.53;;;14.89;93.36
49611;BME280;35515;48.766;9.176;2023-05-10T08:26:30;97964.66;;;14.80;94.31
49611;BME280;35515;48.766;9.176;2023-05-10T08:28:57;97966.25;;;14.93;94.02
49611;BME280;35515;48.766;9.176;2023-05-10T08:31:23;97971.38;;;14.90;95.17
49611;BME280;35515;48.766;9.176;2023-05-10T08:33:50;97977.66;;;14.90;92.97
49611;BME280;35515;48.766;9.176;2023-05-10T08:36:17;97977.50;;;14.97;92.25
49611;BME280;35515;48.766;9.176;2023-05-10T08:38:49;97986.75;;;14.96;91.34
49611;BME280;35515;48.766;9.176;2023-05-10T08:41:17;97983.94;;;14.91;92.32
49611;BME280;35515;48.766;9.176;2023-05-10T08:43:44;97978.47;;;14.91;89.96
49611;BME280;35515;48.766;9.176;2023-05-10T08:46:15;97979.53;;;14.90;90.61
49611;BME280;35515;48.766;9.176;2023-05-10T08:48:43;97982.28;;;14.90;90.88
49611;BME280;35515;48.766;9.176;2023-05-10T08:51:11;97984.94;;;15.01;87.53
49611;BME280;35515;48.766;9.176;2023-05-10T08:53:39;97986.50;;;14.97;89.77
49611;BME280;35515;48.766;9.176;2023-05-10T08:56:07;97988.00;;;15.05;87.58
49611;BME280;35515;48.766;9.176;2023-05-10T08:58:34;97989.78;;;14.99;88.03
49611;BME280;35515;48.766;9.176;2023-05-10T09:01:02;97982.47;;;15.00;90.08
49611;BME280;35515;48.766;9.176;2023-05-10T09:03:30;97992.03;;;15.02;89.56
49611;BME280;35515;48.766;9.176;2023-05-10T09:05:57;97990.72;;;15.05;90.30
49611;BME280;35515;48.766;9.176;2023-05-10T09:08:25;97991.28;;;15.07;89.63
49611;BME280;35515;48.766;9.176;2023-05-10T09:10:52;97993.03;;;15.13;88.08
49611;BME280;35515;48.766;9.176;2023-05-10T09:13:21;97995.94;;;15.24;86.40
49611;BME280;35515;48.766;9.176;2023-05-10T09:15:48;97999.31;;;15.14;86.79
49611;BME280;35515;48.766;9.176;2023-05-10T09:18:15;98007.78;;;15.29;84.66
49611;BME280;35515;48.766;9.176;2023-05-10T09:20:42;98006.09;;;15.11;86.68
49611;BME280;35515;48.766;9.176;2023-05-10T09:23:08;98009.50;;;15.18;82.76
49611;BME280;35515;48.766;9.176;2023-05-10T09:25:35;98002.81;;;15.09;84.99
49611;BME280;35515;48.766;9.176;2023-05-10T09:28:06;98012.88;;;15.26;84.93
49611;BME280;35515;48.766;9.176;2023-05-10T09:30:34;98012.97;;;15.14;85.19
49611;BME280;35515;48.766;9.176;2023-05-10T09:33:01;98012.22;;;15.18;82.46
49611;BME280;35515;48.766;9.176;2023-05-10T09:35:29;98014.72;;;15.20;85.37
49611;BME280;35515;48.766;9.176;2023-05-10T09:37:57;98009.34;;;15.25;83.61
49611;BME280;35515;48.766;9.176;2023-05-10T09:40:25;98018.34;;;15.26;84.13
49611;BME280;35515;48.766;9.176;2023-05-10T09:42:55;98015.06;;;15.24;83.66
49611;BME280;35515;48.766;9.176;2023-05-10T09:45:24;98017.69;;;15.18;85.61
49611;BME280;35515;48.766;9.176;2023-05-10T09:47:53;98017.38;;;15.32;84.62
49611;BME280;35515;48.766;9.176;2023-05-10T09:50:20;98021.66;;;15.28;84.40
49611;BME280;35515;48.766;9.176;2023-05-10T09:52:48;98009.09;;;15.27;85.06
49611;BME280;35515;48.766;9.176;2023-05-10T09:55:16;98006.41;;;15.66;80.82
49611;BME280;35515;48.766;9.176;2023-05-10T09:57:43;98005.69;;;15.53;82.39
49611;BME280;35515;48.766;9.176;2023-05-10T10:00:16;98005.13;;;15.51;81.09
49611;BME280;35515;48.766;9.176;2023-05-10T10:02:45;98005.13;;;15.51;83.29
49611;BME280;35515;48.766;9.176;2023-05-10T10:05:14;98004.63;;;15.54;82.44
49611;BME280;35515;48.766;9.176;2023-05-10T10:07:41;98003.38;;;15.62;82.74
49611;BME280;35515;48.766;9.176;2023-05-10T10:10:08;98007.44;;;15.60;81.29
49611;BME280;35515;48.766;9.176;2023-05-10T10:12:37;98007.34;;;15.71;79.52
49611;BME280;35515;48.766;9.176;2023-05-10T10:15:07;98011.41;;;15.69;79.16
49611;BME280;35515;48.766;9.176;2023-05-10T10:17:35;98005.34;;;15.67;79.04
49611;BME280;35515;48.766;9.176;2023-05-10T10:20:02;97997.81;;;15.74;78.19
49611;BME280;35515;48.766;9.176;2023-05-10T10:22:30;97993.50;;;15.78;76.99
49611;BME280;35515;48.766;9.176;2023-05-10T10:24:57;97997.97;;;15.84;75.88
49611;BME280;35515;48.766;9.176;2023-05-10T10:27:28;97993.84;;;15.82;74.58
49611;BME280;35515;48.766;9.176;2023-05-10T10:30:04;98005.00;;;15.97;73.24
49611;BME280;35515;48.766;9.176;2023-05-10T10:32:47;98002.50;;;15.79;74.27
49611;BME280;35515;48.766;9.176;2023-05-10T10:35:21;97996.16;;;15.73;74.88
49611;BME280;35515;48.766;9.176;2023-05-10T10:37:50;97995.66;;;15.76;74.51
49611;BME280;35515;48.766;9.176;2023-05-10T10:40:24;98004.53;;;15.83;74.66
49611;BME280;35515;48.766;9.176;2023-05-10T10:42:51;97995.75;;;15.81;73.04
49611;BME280;35515;48.766;9.176;2023-05-10T10:45:19;98001.28;;;15.69;73.62
49611;BME280;35515;48.766;9.176;2023-05-10T10:47:46;97995.31;;;15.72;74.11
49611;BME280;35515;48.766;9.176;2023-05-10T10:50:13;97996.16;;;15.73;75.62
49611;BME280;35515;48.766;9.176;2023-05-10T10:52:42;98004.84;;;15.87;74.73
49611;BME280;35515;48.766;9.176;2023-05-10T10:55:12;98037.06;;;15.85;75.06
49611;BME280;35515;48.766;9.176;2023-05-10T10:57:44;98023.22;;;15.92;69.09
49611;BME280;35515;48.766;9.176;2023-05-10T11:00:20;98025.81;;;15.81;69.03
49611;BME280;35515;48.766;9.176;2023-05-10T11:02:48;98014.84;;;15.64;69.97
49611;BME280;35515;48.766;9.176;2023-05-10T11:08:14;98029.28;;;15.43;70.84
49611;BME280;35515;48.766;9.176;2023-05-10T11:11:01;98032.69;;;15.33;71.62
49611;BME280;35515;48.766;9.176;2023-05-10T11:13:29;98034.91;;;15.36;66.51
49611;BME280;35515;48.766;9.176;2023-05-10T11:15:57;98042.44;;;15.29;67.84
49611;BME280;35515;48.766;9.176;2023-05-10T11:18:25;98032.66;;;15.16;68.03
49611;BME280;35515;48.766;9.176;2023-05-10T11:20:56;98030.28;;;15.19;69.31
49611;BME280;35515;48.766;9.176;2023-05-10T11:23:23;98026.94;;;15.17;68.91
49611;BME280;35515;48.766;9.176;2023-05-10T11:25:51;98030.75;;;15.16;69.94
49611;BME280;35515;48.766;9.176;2023-05-10T11:28:18;98028.91;;;15.05;69.76
49611;BME280;35515;48.766;9.176;2023-05-10T11:30:45;98031.91;;;15.20;68.56
49611;BME280;35515;48.766;9.176;2023-05-10T11:33:15;98027.69;;;15.30;68.89
49611;BME280;35515;48.766;9.176;2023-05-10T11:35:42;98032.06;;;15.31;70.32
49611;BME280;35515;48.766;9.176;2023-05-10T11:38:10;98035.06;;;15.46;66.64
49611;BME280;35515;48.766;9.176;2023-05-10T11:40:37;98037.38;;;15.37;68.09
49611;BME280;35515;48.766;9.176;2023-05-10T11:43:05;98046.97;;;15.40;67.30
49611;BME280;35515;48.766;9.176;2023-05-10T11:45:32;98049.69;;;15.40;66.72
49611;BME280;35515;48.766;9.176;2023-05-10T11:47:59;98048.38;;;15.26;67.29
49611;BME280;35515;48.766;9.176;2023-05-10T11:50:26;98043.25;;;15.29;68.21
49611;BME280;35515;48.766;9.176;2023-05-10T11:52:53;98051.03;;;15.37;67.51
49611;BME280;35515;48.766;9.176;2023-05-10T11:55:20;98051.16;;;15.14;69.16
49611;BME280;35515;48.766;9.176;2023-05-10T11:57:47;98046.19;;;15.11;69.60
49611;BME280;35515;48.766;9.176;2023-05-10T12:00:15;98050.44;;;15.18;70.15
49611;BME280;35515;48.766;9.176;2023-05-10T12:02:45;98057.72;;;15.13;69.54
49611;BME280;35515;48.766;9.176;2023-05-10T12:05:12;98062.16;;;15.19;69.66
49611;BME280;35515;48.766;9.176;2023-05-10T12:07:39;98058.09;;;15.04;71.01
49611;BME280;35515;48.766;9.176;2023-05-10T12:10:07;98063.88;;;15.08;72.56
49611;BME280;35515;48.766;9.176;2023-05-10T12:12:37;98073.78;;;15.26;70.54
49611;BME280;35515;48.766;9.176;2023-05-10T12:15:05;98057.72;;;15.30;68.90
49611;BME280;35515;48.766;9.176;2023-05-10T12:17:38;98067.97;;;15.23;68.61
49611;BME280;35515;48.766;9.176;2023-05-10T12:20:15;98066.50;;;15.32;70.10
49611;BME280;35515;48.766;9.176;2023-05-10T12:22:44;98070.56;;;15.46;68.54
49611;BME280;35515;48.766;9.176;2023-05-10T12:25:11;98067.41;;;15.37;69.40
49611;BME280;35515;48.766;9.176;2023-05-10T12:27:37;98074.75;;;15.54;67.98
49611;BME280;35515;48.766;9.176;2023-05-10T12:30:05;98071.03;;;15.43;69.53
49611;BME280;35515;48.766;9.176;2023-05-10T12:32:39;98061.34;;;15.52;67.04
49611;BME280;35515;48.766;9.176;2023-05-10T12:35:07;98062.94;;;15.48;67.82
49611;BME280;35515;48.766;9.176;2023-05-10T12:37:34;98069.13;;;15.61;67.48
49611;BME280;35515;48.766;9.176;2023-05-10T12:40:06;98071.28;;;15.59;67.57
49611;BME280;35515;48.766;9.176;2023-05-10T12:42:33;98073.44;;;15.57;64.60
49611;BME280;35515;48.766;9.176;2023-05-10T12:45:00;98071.28;;;15.59;65.08
49611;BME280;35515;48.766;9.176;2023-05-10T12:47:27;98075.41;;;15.44;64.94
49611;BME280;35515;48.766;9.176;2023-05-10T12:49:55;98068.66;;;15.47;66.57
49611;BME280;35515;48.766;9.176;2023-05-10T12:52:21;98074.69;;;15.66;64.84
49611;BME280;35515;48.766;9.176;2023-05-10T12:54:48;98071.63;;;15.45;65.35
49611;BME280;35515;48.766;9.176;2023-05-10T12:57:14;98071.81;;;15.55;65.47
49611;BME280;35515;48.766;9.176;2023-05-10T12:59:41;98076.75;;;15.42;66.55
49611;BME280;35515;48.766;9.176;2023-05-10T13:02:08;98062.47;;;15.51;66.28
49611;BME280;35515;48.766;9.176;2023-05-10T13:04:35;98064.91;;;15.36;67.28
49611;BME280;35515;48.766;9.176;2023-05-10T13:07:05;98066.50;;;15.32;67.46
49611;BME280;35515;48.766;9.176;2023-05-10T13:09:32;98064.31;;;15.34;68.18
49611;BME280;35515;48.766;9.176;2023-05-10T13:11:59;98064.81;;;15.31;69.00